Townsend, MT

4:09 PM MST on February 07, 2016 (GMT -0700)
Townsend Seeds | | Change Station
CLOSE
Current Station
Personal Weather Station
Location: Townsend, MT
Elevation: 3825 ft
Nearby Weather Stations

Elev 3825 ft 46.32 °N, 111.52 °W | Updated 8 seconds ago

Clear
Clear
38.7 °F
Feels Like 35 °F
N
5.4
Wind Variable Wind from SSE
Gusts 5.8 mph

Today
High -- | Low -- °F
--% Chance of Precip.
Yesterday
High -- | Low -- °F
Precip. -- in
Pressure 30.59 in
Visibility 10.0 miles
Clouds Clear
Windchill 35 °F
Dew Point 14 °F
Humidity 36%
Rainfall 0.00 in
Snow Depth Not available.
7:41 AM 5:39 PM
Waning Crescent, 1% visible
METAR KHLN 072253Z 29011KT 10SM CLR 06/M08 A3046 RMK AO2 SLP357 T00561083
Pressure 30.59 in
Visibility 10.0 miles
Clouds Clear
Windchill 35 °F
Dew Point 14 °F
Humidity 36%
Rainfall 0.00 in
Snow Depth Not available.
7:41 AM 5:39 PM
Waning Crescent, 1% visible
METAR KHLN 072253Z 29011KT 10SM CLR 06/M08 A3046 RMK AO2 SLP357 T00561083

10-Day Weather Forecast

Almanac

Astronomy

Feb. 07, 2016 Rise Set
Actual Time
Civil Twilight
Nautical Twilight
Astronomical Twilight
Moon
Length of Visible Light
Length of Day
Tomorrow will be .
, % of the Moon is Illuminated

Today's Extremes

State Highs State Lows

Community

WunderPhotos

Upload Photos

1,891,325 photos uploaded!

WunderBlog® & News

Nearby

Air Quality

  Air Quality AQ Index Pollutant
Not available.

Snow Depth

Station Depth Elevation

Earthquake Activity

City Distance Mag. Time & Date
Minimum magnitude displayed is 2.5.

Coastal Water Temperatures

Place Temperature

Stations

Nearby Weather Stations

Station Location Temp. Windchill Dew Point Humidity Wind Precip. Elev Updated Type
                   

Watches & Warnings

There are currently no watches in effect.